PWSweather.com
Personal Weather Stations
Station Observations
KCAOCEAN4
Jeffries Ranch, Oceanside, CA 92057

Jeffries RanchOceanside, CA 92057

Lat: 33.2463208, Lon: -117.25335080000002

Elevation: 207

Station Type: Davis Vantage Vue

jeffriesranchweather.com

High Low Average
Temperature 61.0°F16.1°C 43.3°F6.3°C 54.2°F12.3°C
Dew Point 48.6°F9.2°C 34.5°F1.4°C 41.9°F5.5°C
Winds 12.1 mph 19.5 kmh Calm Calm 4.0 mph SSW6.4 kmh SSW
Wind Gusts 21.9 mph35.2 kmh -- 8.0 mph12.9 kmh
Humidity 83% 39% 65%
Pressure 30.14 in1020.7 mb 29.90 in1012.5 mb -
Precipitation 0.00 in0.0 mm - -
Hour Temp Dew Point Humidity Winds Wind Gusts Pressure Precip Precip Rate Daily Precip Total
12:01 AM 55.0°F12.8°C 48.0°F8.9°C 77% 0.9 mph SW1.4 kmh SW 4.0 mph6.4 kmh 29.93 in1013.5 mb 0.00 in0.0 mm 0.00 in0.0 mm 0.00 in0.0 mm
12:11 AM 54.9°F12.7°C 48.2°F9.0°C 78% 0.9 mph S1.4 kmh S 4.0 mph6.4 kmh 29.93 in1013.5 mb 0.00 in0.0 mm 0.00 in0.0 mm 0.00 in0.0 mm
12:21 AM 54.5°F12.5°C 47.8°F8.8°C 78% 2.0 mph SSE3.2 kmh SSE 4.0 mph6.4 kmh 29.93 in1013.5 mb 0.00 in0.0 mm 0.00 in0.0 mm 0.00 in0.0 mm
12:31 AM 54.3°F12.4°C 48.0°F8.9°C 79% 2.0 mph SSE3.2 kmh SSE 4.9 mph7.9 kmh 29.92 in1013.2 mb 0.00 in0.0 mm 0.00 in0.0 mm 0.00 in0.0 mm
12:41 AM 54.3°F12.4°C 48.0°F8.9°C 79% 2.0 mph SSW3.2 kmh SSW 6.0 mph9.7 kmh 29.92 in1013.2 mb 0.00 in0.0 mm 0.00 in0.0 mm 0.00 in0.0 mm
12:51 AM 54.5°F12.5°C 48.2°F9.0°C 79% 2.9 mph S4.7 kmh S 6.0 mph9.7 kmh 29.92 in1013.2 mb 0.00 in0.0 mm 0.00 in0.0 mm 0.00 in0.0 mm
01:01 AM 54.7°F12.6°C 48.4°F9.1°C 79% 2.9 mph SE4.7 kmh SE 4.9 mph7.9 kmh 29.92 in1013.2 mb 0.00 in0.0 mm 0.00 in0.0 mm 0.00 in0.0 mm
01:11 AM 54.3°F12.4°C 48.2°F9.0°C 80% 2.9 mph SSW4.7 kmh SSW 5.0 mph8.0 kmh 29.92 in1013.2 mb 0.00 in0.0 mm 0.00 in0.0 mm 0.00 in0.0 mm
01:21 AM 54.5°F12.5°C 48.4°F9.1°C 80% 2.0 mph S3.2 kmh S 4.9 mph7.9 kmh 29.92 in1013.2 mb 0.00 in0.0 mm 0.00 in0.0 mm 0.00 in0.0 mm
01:31 AM 54.5°F12.5°C 48.2°F9.0°C 79% 2.0 mph SE3.2 kmh SE 5.0 mph8.0 kmh 29.92 in1013.2 mb 0.00 in0.0 mm 0.00 in0.0 mm 0.00 in0.0 mm
01:41 AM 54.5°F12.5°C 48.2°F9.0°C 79% 2.0 mph SSW3.2 kmh SSW 4.0 mph6.4 kmh 29.91 in1012.9 mb 0.00 in0.0 mm 0.00 in0.0 mm 0.00 in0.0 mm
01:51 AM 54.9°F12.7°C 48.6°F9.2°C 79% 2.0 mph S3.2 kmh S 6.9 mph11.1 kmh 29.91 in1012.9 mb 0.00 in0.0 mm 0.00 in0.0 mm 0.00 in0.0 mm
02:01 AM 54.9°F12.7°C 48.6°F9.2°C 79% 2.0 mph S3.2 kmh S 6.0 mph9.7 kmh 29.91 in1012.9 mb 0.00 in0.0 mm 0.00 in0.0 mm 0.00 in0.0 mm
02:11 AM 54.7°F12.6°C 48.4°F9.1°C 79% 2.9 mph SW4.7 kmh SW 6.0 mph9.7 kmh 29.91 in1012.9 mb 0.00 in0.0 mm 0.00 in0.0 mm 0.00 in0.0 mm
02:21 AM 54.7°F12.6°C 48.4°F9.1°C 79% 2.9 mph S4.7 kmh S 6.0 mph9.7 kmh 29.91 in1012.9 mb 0.00 in0.0 mm 0.00 in0.0 mm 0.00 in0.0 mm
02:31 AM 54.9°F12.7°C 48.6°F9.2°C 79% 2.9 mph S4.7 kmh S 4.9 mph7.9 kmh 29.91 in1012.9 mb 0.00 in0.0 mm 0.00 in0.0 mm 0.00 in0.0 mm
02:41 AM 54.9°F12.7°C 48.6°F9.2°C 79% 2.9 mph SE4.7 kmh SE 4.9 mph7.9 kmh 29.91 in1012.9 mb 0.00 in0.0 mm 0.00 in0.0 mm 0.00 in0.0 mm
02:51 AM 54.9°F12.7°C 48.6°F9.2°C 79% 2.9 mph SSE4.7 kmh SSE 7.0 mph11.3 kmh 29.90 in1012.5 mb 0.00 in0.0 mm 0.00 in0.0 mm 0.00 in0.0 mm
03:01 AM 54.9°F12.7°C 48.6°F9.2°C 79% 2.9 mph SW4.7 kmh SW 6.0 mph9.7 kmh 29.90 in1012.5 mb 0.00 in0.0 mm 0.00 in0.0 mm 0.00 in0.0 mm
03:11 AM 54.9°F12.7°C 48.6°F9.2°C 79% 2.9 mph SSE4.7 kmh SSE 6.0 mph9.7 kmh 29.90 in1012.5 mb 0.00 in0.0 mm 0.00 in0.0 mm 0.00 in0.0 mm
03:21 AM 54.9°F12.7°C 48.6°F9.2°C 79% 2.9 mph WSW4.7 kmh WSW 7.0 mph11.3 kmh 29.90 in1012.5 mb 0.00 in0.0 mm 0.00 in0.0 mm 0.00 in0.0 mm
03:31 AM 55.0°F12.8°C 48.4°F9.1°C 78% 2.9 mph SW4.7 kmh SW 8.1 mph13.0 kmh 29.90 in1012.5 mb 0.00 in0.0 mm 0.00 in0.0 mm 0.00 in0.0 mm
03:41 AM 55.2°F12.9°C 48.6°F9.2°C 78% 2.9 mph WNW4.7 kmh WNW 10.1 mph16.3 kmh 29.90 in1012.5 mb 0.00 in0.0 mm 0.00 in0.0 mm 0.00 in0.0 mm
03:51 AM 55.0°F12.8°C 48.4°F9.1°C 78% 2.9 mph SW4.7 kmh SW 8.1 mph13.0 kmh 29.91 in1012.9 mb 0.00 in0.0 mm 0.00 in0.0 mm 0.00 in0.0 mm
04:01 AM 54.9°F12.7°C 48.2°F9.0°C 78% 2.9 mph WSW4.7 kmh WSW 8.1 mph13.0 kmh 29.90 in1012.5 mb 0.00 in0.0 mm 0.00 in0.0 mm 0.00 in0.0 mm
04:11 AM 54.7°F12.6°C 48.0°F8.9°C 78% 2.9 mph SW4.7 kmh SW 9.0 mph14.5 kmh 29.90 in1012.5 mb 0.00 in0.0 mm 0.00 in0.0 mm 0.00 in0.0 mm
04:21 AM 54.7°F12.6°C 47.7°F8.7°C 77% 2.0 mph SW3.2 kmh SW 8.9 mph14.3 kmh 29.90 in1012.5 mb 0.00 in0.0 mm 0.00 in0.0 mm 0.00 in0.0 mm
04:31 AM 54.1°F12.3°C 47.1°F8.4°C 77% 0.9 mph SE1.4 kmh SE 4.9 mph7.9 kmh 29.90 in1012.5 mb 0.00 in0.0 mm 0.00 in0.0 mm 0.00 in0.0 mm
04:41 AM 53.8°F12.1°C 47.1°F8.4°C 78% 2.0 mph SSE3.2 kmh SSE 4.0 mph6.4 kmh 29.90 in1012.5 mb 0.00 in0.0 mm 0.00 in0.0 mm 0.00 in0.0 mm
04:51 AM 53.4°F11.9°C 46.8°F8.2°C 78% 2.0 mph SSE3.2 kmh SSE 4.0 mph6.4 kmh 29.90 in1012.5 mb 0.00 in0.0 mm 0.00 in0.0 mm 0.00 in0.0 mm
05:01 AM 53.2°F11.8°C 46.6°F8.1°C 78% 2.0 mph S3.2 kmh S 4.9 mph7.9 kmh 29.90 in1012.5 mb 0.00 in0.0 mm 0.00 in0.0 mm 0.00 in0.0 mm
05:11 AM 54.0°F12.2°C 46.9°F8.3°C 77% 2.9 mph SSE4.7 kmh SSE 8.1 mph13.0 kmh 29.90 in1012.5 mb 0.00 in0.0 mm 0.00 in0.0 mm 0.00 in0.0 mm
05:21 AM 54.7°F12.6°C 47.3°F8.5°C 76% 2.0 mph WSW3.2 kmh WSW 6.0 mph9.7 kmh 29.90 in1012.5 mb 0.00 in0.0 mm 0.00 in0.0 mm 0.00 in0.0 mm
05:32 AM 55.0°F12.8°C 46.6°F8.1°C 73% 2.9 mph SW4.7 kmh SW 7.0 mph11.3 kmh 29.90 in1012.5 mb 0.00 in0.0 mm 0.00 in0.0 mm 0.00 in0.0 mm
05:42 AM 54.9°F12.7°C 46.4°F8.0°C 73% 2.0 mph WSW3.2 kmh WSW 4.0 mph6.4 kmh 29.90 in1012.5 mb 0.00 in0.0 mm 0.00 in0.0 mm 0.00 in0.0 mm
05:52 AM 54.1°F12.3°C 46.0°F7.8°C 74% 0.9 mph SW1.4 kmh SW 2.9 mph4.7 kmh 29.90 in1012.5 mb 0.00 in0.0 mm 0.00 in0.0 mm 0.00 in0.0 mm
06:02 AM 53.4°F11.9°C 45.3°F7.4°C 74% 0.9 mph SE1.4 kmh SE 2.0 mph3.2 kmh 29.90 in1012.5 mb 0.00 in0.0 mm 0.00 in0.0 mm 0.00 in0.0 mm
06:12 AM 53.8°F12.1°C 45.7°F7.6°C 74% 0.9 mph WSW1.4 kmh WSW 4.0 mph6.4 kmh 29.91 in1012.9 mb 0.00 in0.0 mm 0.00 in0.0 mm 0.00 in0.0 mm
06:22 AM 54.0°F12.2°C 45.1°F7.3°C 72% 2.0 mph W3.2 kmh W 8.1 mph13.0 kmh 29.91 in1012.9 mb 0.00 in0.0 mm 0.00 in0.0 mm 0.00 in0.0 mm
06:32 AM 54.1°F12.3°C 45.7°F7.6°C 73% 4.0 mph WSW6.4 kmh WSW 8.9 mph14.3 kmh 29.91 in1012.9 mb 0.00 in0.0 mm 0.00 in0.0 mm 0.00 in0.0 mm
06:42 AM 54.0°F12.2°C 45.1°F7.3°C 72% 2.9 mph WSW4.7 kmh WSW 8.9 mph14.3 kmh 29.91 in1012.9 mb 0.00 in0.0 mm 0.00 in0.0 mm 0.00 in0.0 mm
06:52 AM 53.4°F11.9°C 45.0°F7.2°C 73% 0.9 mph SE1.4 kmh SE 4.9 mph7.9 kmh 29.91 in1012.9 mb 0.00 in0.0 mm 0.00 in0.0 mm 0.00 in0.0 mm
07:02 AM 52.9°F11.6°C 44.4°F6.9°C 73% Calm Calm 2.0 mph3.2 kmh 29.91 in1012.9 mb 0.00 in0.0 mm 0.00 in0.0 mm 0.00 in0.0 mm
07:12 AM 52.5°F11.4°C 44.1°F6.7°C 73% 0.9 mph SSE1.4 kmh SSE 2.9 mph4.7 kmh 29.92 in1013.2 mb 0.00 in0.0 mm 0.00 in0.0 mm 0.00 in0.0 mm
07:22 AM 52.7°F11.5°C 43.9°F6.6°C 72% 2.0 mph SE3.2 kmh SE 4.0 mph6.4 kmh 29.92 in1013.2 mb 0.00 in0.0 mm 0.00 in0.0 mm 0.00 in0.0 mm
07:32 AM 52.5°F11.4°C 44.1°F6.7°C 73% 0.9 mph SSW1.4 kmh SSW 2.9 mph4.7 kmh 29.92 in1013.2 mb 0.00 in0.0 mm 0.00 in0.0 mm 0.00 in0.0 mm
07:42 AM 52.5°F11.4°C 44.1°F6.7°C 73% 0.9 mph WSW1.4 kmh WSW 2.9 mph4.7 kmh 29.93 in1013.5 mb 0.00 in0.0 mm 0.00 in0.0 mm 0.00 in0.0 mm
07:52 AM 52.5°F11.4°C 44.1°F6.7°C 73% 0.9 mph WSW1.4 kmh WSW 2.0 mph3.2 kmh 29.94 in1013.9 mb 0.00 in0.0 mm 0.00 in0.0 mm 0.00 in0.0 mm
08:02 AM 52.2°F11.2°C 43.7°F6.5°C 73% Calm Calm 0.9 mph1.4 kmh 29.94 in1013.9 mb 0.00 in0.0 mm 0.00 in0.0 mm 0.00 in0.0 mm
08:12 AM 52.0°F11.1°C 43.9°F6.6°C 74% Calm Calm -- 29.94 in1013.9 mb 0.00 in0.0 mm 0.00 in0.0 mm 0.00 in0.0 mm
08:22 AM 51.1°F10.6°C 43.7°F6.5°C 76% Calm Calm -- 29.95 in1014.2 mb 0.00 in0.0 mm 0.00 in0.0 mm 0.00 in0.0 mm
08:32 AM 51.1°F10.6°C 43.5°F6.4°C 75% Calm Calm -- 29.95 in1014.2 mb 0.00 in0.0 mm 0.00 in0.0 mm 0.00 in0.0 mm
08:42 AM 50.4°F10.2°C 43.3°F6.3°C 77% Calm Calm -- 29.96 in1014.6 mb 0.00 in0.0 mm 0.00 in0.0 mm 0.00 in0.0 mm
08:52 AM 50.2°F10.1°C 43.9°F6.6°C 79% Calm Calm -- 29.96 in1014.6 mb 0.00 in0.0 mm 0.00 in0.0 mm 0.00 in0.0 mm
09:02 AM 50.5°F10.3°C 43.5°F6.4°C 77% 0.9 mph SE1.4 kmh SE 2.0 mph3.2 kmh 29.96 in1014.6 mb 0.00 in0.0 mm 0.00 in0.0 mm 0.00 in0.0 mm
09:12 AM 51.4°F10.8°C 44.4°F6.9°C 77% Calm Calm 0.9 mph1.4 kmh 29.97 in1014.9 mb 0.00 in0.0 mm 0.00 in0.0 mm 0.00 in0.0 mm
09:22 AM 52.9°F11.6°C 44.8°F7.1°C 74% Calm Calm -- 29.97 in1014.9 mb 0.00 in0.0 mm 0.00 in0.0 mm 0.00 in0.0 mm
09:32 AM 54.3°F12.4°C 44.4°F6.9°C 69% Calm Calm -- 29.98 in1015.2 mb 0.00 in0.0 mm 0.00 in0.0 mm 0.00 in0.0 mm
09:42 AM 55.9°F13.3°C 45.1°F7.3°C 67% Calm Calm -- 29.98 in1015.2 mb 0.00 in0.0 mm 0.00 in0.0 mm 0.00 in0.0 mm
09:52 AM 56.1°F13.4°C 42.4°F5.8°C 60% Calm Calm 2.0 mph3.2 kmh 29.99 in1015.6 mb 0.00 in0.0 mm 0.00 in0.0 mm 0.00 in0.0 mm
10:02 AM 56.1°F13.4°C 41.9°F5.5°C 59% 2.0 mph W3.2 kmh W 6.0 mph9.7 kmh 29.99 in1015.6 mb 0.00 in0.0 mm 0.00 in0.0 mm 0.00 in0.0 mm
10:12 AM 56.5°F13.6°C 42.3°F5.7°C 59% 2.0 mph WNW3.2 kmh WNW 6.9 mph11.1 kmh 30.00 in1015.9 mb 0.00 in0.0 mm 0.00 in0.0 mm 0.00 in0.0 mm
10:22 AM 56.8°F13.8°C 39.4°F4.1°C 52% 2.9 mph NW4.7 kmh NW 6.9 mph11.1 kmh 30.01 in1016.3 mb 0.00 in0.0 mm 0.00 in0.0 mm 0.00 in0.0 mm
10:32 AM 56.8°F13.8°C 38.8°F3.8°C 51% 2.9 mph W4.7 kmh W 8.1 mph13.0 kmh 30.01 in1016.3 mb 0.00 in0.0 mm 0.00 in0.0 mm 0.00 in0.0 mm
10:42 AM 57.0°F13.9°C 38.1°F3.4°C 49% 2.9 mph WNW4.7 kmh WNW 8.1 mph13.0 kmh 30.01 in1016.3 mb 0.00 in0.0 mm 0.00 in0.0 mm 0.00 in0.0 mm
10:52 AM 57.4°F14.1°C 37.4°F3.0°C 47% 4.9 mph W7.9 kmh W 10.1 mph16.3 kmh 30.01 in1016.3 mb 0.00 in0.0 mm 0.00 in0.0 mm 0.00 in0.0 mm
11:02 AM 57.7°F14.3°C 36.5°F2.5°C 45% 6.9 mph NW11.1 kmh NW 15.0 mph24.1 kmh 30.02 in1016.6 mb 0.00 in0.0 mm 0.00 in0.0 mm 0.00 in0.0 mm
11:12 AM 57.6°F14.2°C 35.8°F2.1°C 44% 8.1 mph NW13.0 kmh NW 21.0 mph33.8 kmh 30.02 in1016.6 mb 0.00 in0.0 mm 0.00 in0.0 mm 0.00 in0.0 mm
11:22 AM 57.7°F14.3°C 36.0°F2.2°C 44% 6.9 mph NW11.1 kmh NW 14.1 mph22.7 kmh 30.02 in1016.6 mb 0.00 in0.0 mm 0.00 in0.0 mm 0.00 in0.0 mm
11:32 AM 57.7°F14.3°C 36.0°F2.2°C 44% 6.0 mph WNW9.7 kmh WNW 12.1 mph19.5 kmh 30.02 in1016.6 mb 0.00 in0.0 mm 0.00 in0.0 mm 0.00 in0.0 mm
11:42 AM 58.5°F14.7°C 35.4°F1.9°C 42% 6.9 mph WNW11.1 kmh WNW 16.1 mph25.9 kmh 30.01 in1016.3 mb 0.00 in0.0 mm 0.00 in0.0 mm 0.00 in0.0 mm
11:52 AM 58.6°F14.8°C 35.6°F2.0°C 42% 6.9 mph WSW11.1 kmh WSW 17.0 mph27.4 kmh 30.01 in1016.3 mb 0.00 in0.0 mm 0.00 in0.0 mm 0.00 in0.0 mm
12:02 PM 58.8°F14.9°C 35.2°F1.8°C 41% 8.9 mph WNW14.3 kmh WNW 20.0 mph32.2 kmh 30.01 in1016.3 mb 0.00 in0.0 mm 0.00 in0.0 mm 0.00 in0.0 mm
12:12 PM 58.8°F14.9°C 34.5°F1.4°C 40% 10.1 mph WNW16.3 kmh WNW 19.0 mph30.6 kmh 30.01 in1016.3 mb 0.00 in0.0 mm 0.00 in0.0 mm 0.00 in0.0 mm
12:22 PM 58.6°F14.8°C 35.6°F2.0°C 42% 8.1 mph SW13.0 kmh SW 17.9 mph28.8 kmh 30.00 in1015.9 mb 0.00 in0.0 mm 0.00 in0.0 mm 0.00 in0.0 mm
12:32 PM 58.8°F14.9°C 36.3°F2.4°C 43% 8.1 mph NW13.0 kmh NW 16.1 mph25.9 kmh 29.99 in1015.6 mb 0.00 in0.0 mm 0.00 in0.0 mm 0.00 in0.0 mm
12:42 PM 59.4°F15.2°C 36.9°F2.7°C 43% 6.9 mph W11.1 kmh W 14.1 mph22.7 kmh 29.99 in1015.6 mb 0.00 in0.0 mm 0.00 in0.0 mm 0.00 in0.0 mm
12:52 PM 59.2°F15.1°C 36.1°F2.3°C 42% 6.9 mph W11.1 kmh W 13.0 mph20.9 kmh 29.98 in1015.2 mb 0.00 in0.0 mm 0.00 in0.0 mm 0.00 in0.0 mm
01:02 PM 59.4°F15.2°C 36.9°F2.7°C 43% 8.9 mph W14.3 kmh W 18.0 mph29.0 kmh 29.98 in1015.2 mb 0.00 in0.0 mm 0.00 in0.0 mm 0.00 in0.0 mm
01:12 PM 59.5°F15.3°C 36.5°F2.5°C 42% 6.9 mph W11.1 kmh W 13.0 mph20.9 kmh 29.98 in1015.2 mb 0.00 in0.0 mm 0.00 in0.0 mm 0.00 in0.0 mm
01:22 PM 59.7°F15.4°C 37.8°F3.2°C 44% 8.1 mph W13.0 kmh W 17.0 mph27.4 kmh 29.98 in1015.2 mb 0.00 in0.0 mm 0.00 in0.0 mm 0.00 in0.0 mm
01:32 PM 59.7°F15.4°C 36.5°F2.5°C 42% 8.1 mph W13.0 kmh W 17.0 mph27.4 kmh 29.98 in1015.2 mb 0.00 in0.0 mm 0.00 in0.0 mm 0.00 in0.0 mm
01:42 PM 60.1°F15.6°C 37.6°F3.1°C 43% 8.1 mph WSW13.0 kmh WSW 13.0 mph20.9 kmh 29.97 in1014.9 mb 0.00 in0.0 mm 0.00 in0.0 mm 0.00 in0.0 mm
01:52 PM 60.3°F15.7°C 37.8°F3.2°C 43% 6.9 mph WSW11.1 kmh WSW 14.1 mph22.7 kmh 29.97 in1014.9 mb 0.00 in0.0 mm 0.00 in0.0 mm 0.00 in0.0 mm
02:02 PM 60.3°F15.7°C 37.8°F3.2°C 43% 8.1 mph W13.0 kmh W 14.1 mph22.7 kmh 29.97 in1014.9 mb 0.00 in0.0 mm 0.00 in0.0 mm 0.00 in0.0 mm
02:12 PM 60.3°F15.7°C 37.8°F3.2°C 43% 8.1 mph WSW13.0 kmh WSW 17.0 mph27.4 kmh 29.97 in1014.9 mb 0.00 in0.0 mm 0.00 in0.0 mm 0.00 in0.0 mm
02:22 PM 60.4°F15.8°C 39.0°F3.9°C 45% 6.9 mph W11.1 kmh W 13.0 mph20.9 kmh 29.97 in1014.9 mb 0.00 in0.0 mm 0.00 in0.0 mm 0.00 in0.0 mm
02:32 PM 60.4°F15.8°C 38.5°F3.6°C 44% 8.9 mph WNW14.3 kmh WNW 18.0 mph29.0 kmh 29.97 in1014.9 mb 0.00 in0.0 mm 0.00 in0.0 mm 0.00 in0.0 mm
02:42 PM 60.6°F15.9°C 37.4°F3.0°C 42% 8.1 mph W13.0 kmh W 16.1 mph25.9 kmh 29.98 in1015.2 mb 0.00 in0.0 mm 0.00 in0.0 mm 0.00 in0.0 mm
02:52 PM 60.8°F16.0°C 36.3°F2.4°C 40% 8.9 mph W14.3 kmh W 19.0 mph30.6 kmh 29.97 in1014.9 mb 0.00 in0.0 mm 0.00 in0.0 mm 0.00 in0.0 mm
03:02 PM 61.0°F16.1°C 36.5°F2.5°C 40% 8.9 mph NW14.3 kmh NW 17.9 mph28.8 kmh 29.98 in1015.2 mb 0.00 in0.0 mm 0.00 in0.0 mm 0.00 in0.0 mm
03:12 PM 60.4°F15.8°C 35.4°F1.9°C 39% 11.0 mph WNW17.7 kmh WNW 17.0 mph27.4 kmh 29.98 in1015.2 mb 0.00 in0.0 mm 0.00 in0.0 mm 0.00 in0.0 mm
03:22 PM 60.6°F15.9°C 39.7°F4.3°C 46% 11.0 mph WNW17.7 kmh WNW 18.0 mph29.0 kmh 29.98 in1015.2 mb 0.00 in0.0 mm 0.00 in0.0 mm 0.00 in0.0 mm
03:32 PM 60.4°F15.8°C 40.6°F4.8°C 48% 12.1 mph NW19.5 kmh NW 21.0 mph33.8 kmh 29.98 in1015.2 mb 0.00 in0.0 mm 0.00 in0.0 mm 0.00 in0.0 mm
03:42 PM 59.9°F15.5°C 41.2°F5.1°C 50% 12.1 mph W19.5 kmh W 19.0 mph30.6 kmh 29.98 in1015.2 mb 0.00 in0.0 mm 0.00 in0.0 mm 0.00 in0.0 mm
03:52 PM 60.1°F15.6°C 40.8°F4.9°C 49% 11.0 mph WNW17.7 kmh WNW 19.0 mph30.6 kmh 29.98 in1015.2 mb 0.00 in0.0 mm 0.00 in0.0 mm 0.00 in0.0 mm
04:02 PM 59.7°F15.4°C 40.5°F4.7°C 49% 11.0 mph W17.7 kmh W 19.0 mph30.6 kmh 29.98 in1015.2 mb 0.00 in0.0 mm 0.00 in0.0 mm 0.00 in0.0 mm
04:12 PM 59.7°F15.4°C 38.8°F3.8°C 46% 11.0 mph WNW17.7 kmh WNW 17.9 mph28.8 kmh 29.98 in1015.2 mb 0.00 in0.0 mm 0.00 in0.0 mm 0.00 in0.0 mm
04:22 PM 59.5°F15.3°C 40.3°F4.6°C 49% 11.0 mph NW17.7 kmh NW 17.9 mph28.8 kmh 29.99 in1015.6 mb 0.00 in0.0 mm 0.00 in0.0 mm 0.00 in0.0 mm
04:32 PM 59.5°F15.3°C 41.4°F5.2°C 51% 11.0 mph W17.7 kmh W 21.9 mph35.2 kmh 29.99 in1015.6 mb 0.00 in0.0 mm 0.00 in0.0 mm 0.00 in0.0 mm
04:42 PM 59.4°F15.2°C 40.6°F4.8°C 50% 12.1 mph NW19.5 kmh NW 19.0 mph30.6 kmh 30.00 in1015.9 mb 0.00 in0.0 mm 0.00 in0.0 mm 0.00 in0.0 mm
04:52 PM 59.4°F15.2°C 40.6°F4.8°C 50% 8.9 mph WNW14.3 kmh WNW 17.0 mph27.4 kmh 30.00 in1015.9 mb 0.00 in0.0 mm 0.00 in0.0 mm 0.00 in0.0 mm
05:02 PM 59.2°F15.1°C 40.1°F4.5°C 49% 10.1 mph WNW16.3 kmh WNW 19.0 mph30.6 kmh 30.01 in1016.3 mb 0.00 in0.0 mm 0.00 in0.0 mm 0.00 in0.0 mm
05:12 PM 59.2°F15.1°C 39.6°F4.2°C 48% 8.9 mph W14.3 kmh W 17.0 mph27.4 kmh 30.01 in1016.3 mb 0.00 in0.0 mm 0.00 in0.0 mm 0.00 in0.0 mm
05:22 PM 59.0°F15.0°C 38.8°F3.8°C 47% 8.9 mph W14.3 kmh W 16.1 mph25.9 kmh 30.01 in1016.3 mb 0.00 in0.0 mm 0.00 in0.0 mm 0.00 in0.0 mm
05:32 PM 58.6°F14.8°C 39.6°F4.2°C 49% 10.1 mph W16.3 kmh W 17.0 mph27.4 kmh 30.01 in1016.3 mb 0.00 in0.0 mm 0.00 in0.0 mm 0.00 in0.0 mm
05:42 PM 58.3°F14.6°C 40.8°F4.9°C 52% 8.1 mph WNW13.0 kmh WNW 16.1 mph25.9 kmh 30.02 in1016.6 mb 0.00 in0.0 mm 0.00 in0.0 mm 0.00 in0.0 mm
05:52 PM 57.7°F14.3°C 40.3°F4.6°C 52% 6.9 mph WNW11.1 kmh WNW 14.1 mph22.7 kmh 30.02 in1016.6 mb 0.00 in0.0 mm 0.00 in0.0 mm 0.00 in0.0 mm
06:02 PM 57.4°F14.1°C 40.8°F4.9°C 54% 6.0 mph W9.7 kmh W 11.0 mph17.7 kmh 30.03 in1016.9 mb 0.00 in0.0 mm 0.00 in0.0 mm 0.00 in0.0 mm
06:12 PM 56.8°F13.8°C 42.6°F5.9°C 59% 4.9 mph W7.9 kmh W 11.0 mph17.7 kmh 30.03 in1016.9 mb 0.00 in0.0 mm 0.00 in0.0 mm 0.00 in0.0 mm
06:22 PM 56.5°F13.6°C 42.8°F6.0°C 60% 6.0 mph NW9.7 kmh NW 11.0 mph17.7 kmh 30.03 in1016.9 mb 0.00 in0.0 mm 0.00 in0.0 mm 0.00 in0.0 mm
06:32 PM 55.9°F13.3°C 42.6°F5.9°C 61% 4.0 mph WSW6.4 kmh WSW 8.9 mph14.3 kmh 30.03 in1016.9 mb 0.00 in0.0 mm 0.00 in0.0 mm 0.00 in0.0 mm
06:42 PM 55.4°F13.0°C 42.6°F5.9°C 62% 2.9 mph WSW4.7 kmh WSW 6.0 mph9.7 kmh 30.04 in1017.3 mb 0.00 in0.0 mm 0.00 in0.0 mm 0.00 in0.0 mm
06:52 PM 54.9°F12.7°C 42.4°F5.8°C 63% 2.0 mph W3.2 kmh W 6.0 mph9.7 kmh 30.04 in1017.3 mb 0.00 in0.0 mm 0.00 in0.0 mm 0.00 in0.0 mm
07:02 PM 54.9°F12.7°C 42.1°F5.6°C 62% 2.0 mph W3.2 kmh W 6.0 mph9.7 kmh 30.05 in1017.6 mb 0.00 in0.0 mm 0.00 in0.0 mm 0.00 in0.0 mm
07:12 PM 54.5°F12.5°C 41.7°F5.4°C 62% Calm Calm 2.9 mph4.7 kmh 30.05 in1017.6 mb 0.00 in0.0 mm 0.00 in0.0 mm 0.00 in0.0 mm
07:22 PM 54.1°F12.3°C 41.9°F5.5°C 63% Calm Calm -- 30.05 in1017.6 mb 0.00 in0.0 mm 0.00 in0.0 mm 0.00 in0.0 mm
07:32 PM 53.4°F11.9°C 41.5°F5.3°C 64% 0.9 mph SE1.4 kmh SE 4.0 mph6.4 kmh 30.05 in1017.6 mb 0.00 in0.0 mm 0.00 in0.0 mm 0.00 in0.0 mm
07:42 PM 53.1°F11.7°C 41.5°F5.3°C 65% Calm Calm 2.0 mph3.2 kmh 30.05 in1017.6 mb 0.00 in0.0 mm 0.00 in0.0 mm 0.00 in0.0 mm
07:52 PM 53.1°F11.7°C 41.5°F5.3°C 65% Calm Calm 0.9 mph1.4 kmh 30.05 in1017.6 mb 0.00 in0.0 mm 0.00 in0.0 mm 0.00 in0.0 mm
08:02 PM 52.2°F11.2°C 41.5°F5.3°C 67% 0.9 mph SE1.4 kmh SE 2.0 mph3.2 kmh 30.06 in1017.9 mb 0.00 in0.0 mm 0.00 in0.0 mm 0.00 in0.0 mm
08:12 PM 51.3°F10.7°C 41.4°F5.2°C 69% 0.9 mph SE1.4 kmh SE 2.0 mph3.2 kmh 30.06 in1017.9 mb 0.00 in0.0 mm 0.00 in0.0 mm 0.00 in0.0 mm
08:22 PM 50.7°F10.4°C 41.4°F5.2°C 70% 0.9 mph SE1.4 kmh SE 2.0 mph3.2 kmh 30.06 in1017.9 mb 0.00 in0.0 mm 0.00 in0.0 mm 0.00 in0.0 mm
08:32 PM 50.7°F10.4°C 41.4°F5.2°C 70% 0.9 mph SE1.4 kmh SE 2.0 mph3.2 kmh 30.07 in1018.3 mb 0.00 in0.0 mm 0.00 in0.0 mm 0.00 in0.0 mm
08:42 PM 49.8°F9.9°C 40.8°F4.9°C 71% 0.9 mph ESE1.4 kmh ESE 2.9 mph4.7 kmh 30.07 in1018.3 mb 0.00 in0.0 mm 0.00 in0.0 mm 0.00 in0.0 mm
08:52 PM 49.3°F9.6°C 41.0°F5.0°C 73% 2.0 mph SE3.2 kmh SE 4.0 mph6.4 kmh 30.07 in1018.3 mb 0.00 in0.0 mm 0.00 in0.0 mm 0.00 in0.0 mm
09:02 PM 48.7°F9.3°C 40.8°F4.9°C 74% 2.0 mph SE3.2 kmh SE 4.0 mph6.4 kmh 30.08 in1018.6 mb 0.00 in0.0 mm 0.00 in0.0 mm 0.00 in0.0 mm
09:12 PM 48.2°F9.0°C 40.6°F4.8°C 75% 2.0 mph SE3.2 kmh SE 2.9 mph4.7 kmh 30.08 in1018.6 mb 0.00 in0.0 mm 0.00 in0.0 mm 0.00 in0.0 mm
09:22 PM 48.0°F8.9°C 40.8°F4.9°C 76% 0.9 mph SE1.4 kmh SE 2.0 mph3.2 kmh 30.08 in1018.6 mb 0.00 in0.0 mm 0.00 in0.0 mm 0.00 in0.0 mm
09:32 PM 47.8°F8.8°C 40.6°F4.8°C 76% Calm Calm 2.0 mph3.2 kmh 30.09 in1019.0 mb 0.00 in0.0 mm 0.00 in0.0 mm 0.00 in0.0 mm
09:42 PM 47.8°F8.8°C 40.3°F4.6°C 75% Calm Calm 2.0 mph3.2 kmh 30.09 in1019.0 mb 0.00 in0.0 mm 0.00 in0.0 mm 0.00 in0.0 mm
09:52 PM 47.8°F8.8°C 40.3°F4.6°C 75% 2.0 mph E3.2 kmh E 4.0 mph6.4 kmh 30.09 in1019.0 mb 0.00 in0.0 mm 0.00 in0.0 mm 0.00 in0.0 mm
10:02 PM 47.1°F8.4°C 39.6°F4.2°C 75% 0.9 mph ENE1.4 kmh ENE 2.9 mph4.7 kmh 30.09 in1019.0 mb 0.00 in0.0 mm 0.00 in0.0 mm 0.00 in0.0 mm
10:12 PM 46.8°F8.2°C 39.6°F4.2°C 76% 2.0 mph NE3.2 kmh NE 4.0 mph6.4 kmh 30.10 in1019.3 mb 0.00 in0.0 mm 0.00 in0.0 mm 0.00 in0.0 mm
10:22 PM 46.8°F8.2°C 39.9°F4.4°C 77% 2.9 mph ENE4.7 kmh ENE 8.9 mph14.3 kmh 30.10 in1019.3 mb 0.00 in0.0 mm 0.00 in0.0 mm 0.00 in0.0 mm
10:32 PM 46.0°F7.8°C 39.6°F4.2°C 78% 2.0 mph ESE3.2 kmh ESE 6.9 mph11.1 kmh 30.11 in1019.6 mb 0.00 in0.0 mm 0.00 in0.0 mm 0.00 in0.0 mm
10:42 PM 46.0°F7.8°C 39.2°F4.0°C 77% 2.0 mph ENE3.2 kmh ENE 6.0 mph9.7 kmh 30.11 in1019.6 mb 0.00 in0.0 mm 0.00 in0.0 mm 0.00 in0.0 mm
10:52 PM 45.3°F7.4°C 38.8°F3.8°C 78% 2.0 mph ENE3.2 kmh ENE 4.0 mph6.4 kmh 30.11 in1019.6 mb 0.00 in0.0 mm 0.00 in0.0 mm 0.00 in0.0 mm
11:02 PM 45.0°F7.2°C 38.8°F3.8°C 79% 2.0 mph E3.2 kmh E 4.0 mph6.4 kmh 30.13 in1020.3 mb 0.00 in0.0 mm 0.00 in0.0 mm 0.00 in0.0 mm
11:12 PM 45.0°F7.2°C 38.8°F3.8°C 79% 0.9 mph NNE1.4 kmh NNE 2.9 mph4.7 kmh 30.13 in1020.3 mb 0.00 in0.0 mm 0.00 in0.0 mm 0.00 in0.0 mm
11:22 PM 44.8°F7.1°C 39.0°F3.9°C 80% 0.9 mph ENE1.4 kmh ENE 4.0 mph6.4 kmh 30.13 in1020.3 mb 0.00 in0.0 mm 0.00 in0.0 mm 0.00 in0.0 mm
11:32 PM 44.1°F6.7°C 38.3°F3.5°C 80% 2.0 mph SE3.2 kmh SE 4.0 mph6.4 kmh 30.13 in1020.3 mb 0.00 in0.0 mm 0.00 in0.0 mm 0.00 in0.0 mm
11:42 PM 44.1°F6.7°C 38.8°F3.8°C 82% 0.9 mph NE1.4 kmh NE 4.0 mph6.4 kmh 30.13 in1020.3 mb 0.00 in0.0 mm 0.00 in0.0 mm 0.00 in0.0 mm
11:52 PM 44.1°F6.7°C 38.7°F3.7°C 81% Calm Calm 2.0 mph3.2 kmh 30.14 in1020.7 mb 0.00 in0.0 mm 0.00 in0.0 mm 0.00 in0.0 mm